Masonville, Arkansas
Current Conditions -  °F | °C
As of 1:53 PM on Friday 28 Nov 2014 (Local Time) from KLLQ Reporting Station
Clear Clear  
Wind Chill: 58°   Ceiling: Unl
Heat Index: 58°   Visibility: 10mi
Dew Point: 31°   Wind: 13mph
Humidity: 36%   Direction: 190°S
Pressure: 30.21"   Gusts: NA
Location:  33.6386°N, 91.3646°W
Report Text: KLLQ 281953Z AUTO 19011KT 10SM CLR 14/M01 A3021 RMK AO2 SLP228 T01441006
Loading
Personal Weather Stations






























Interactive Weather Map New forecast layout! Learn more

10-Day Weather Forecast

Advertisements
Track Severe Weather on mobile